Akron, Michigan
Current Conditions -  °F | °C
As of 9:55 PM on Friday 19 Dec 2014 (Local Time) from KCFS Reporting Station
Clear Clear  
Wind Chill: 18°   Ceiling: Unl
Heat Index: 18°   Visibility: 10mi
Dew Point: 16°   Wind: 0mph
Humidity: 94%   Direction: NA
Pressure: 30.29"   Gusts: NA
Location:  43.57°N, 83.51°W
Report Text: KCFS 200255Z AUTO 00000KT 10SM CLR M08/M09 A3029 RMK AO2 T10791087
Loading
Personal Weather Stations






























Interactive Weather Map New forecast layout! Learn more

10-Day Weather Forecast

Advertisements
Track Severe Weather on mobile